Time;durP1;ratioP1;P1;durP2;ratioP2;P2;SDS_P1;SDS_P2;PMS_P1;PMS_P2;Temp;Humidity;BMP_temperature;BMP_pressure;BME280_temperature;BME280_humidity;BME280_pressure;Samples;Min_cycle;Max_cycle;Signal;HPM_P1;HPM_P2
2023/10/27 00:00:45;;;;;;;32.47;16.08;;;;;;;9.90;100.00;99095.19;4943382;28;20027;-69
2023/10/27 00:03:12;;;;;;;33.17;16.70;;;;;;;9.88;100.00;99092.75;4949355;29;20038;-68
2023/10/27 00:05:38;;;;;;;33.85;16.67;;;;;;;9.89;100.00;99094.38;4949731;28;20059;-68
2023/10/27 00:08:03;;;;;;;33.75;16.63;;;;;;;9.91;100.00;99096.81;4950126;28;20061;-67
2023/10/27 00:10:28;;;;;;;32.60;14.80;;;;;;;9.90;100.00;99093.22;4933625;29;20110;-67
2023/10/27 00:12:54;;;;;;;32.40;17.48;;;;;;;9.90;100.00;99097.94;4949929;29;20478;-67
2023/10/27 00:15:20;;;;;;;31.73;16.02;;;;;;;9.91;100.00;99096.81;4952697;28;20090;-68
2023/10/27 00:17:45;;;;;;;32.38;15.82;;;;;;;9.91;100.00;99089.31;4941560;28;20099;-67
2023/10/27 00:20:11;;;;;;;33.10;16.52;;;;;;;9.94;100.00;99098.84;4933846;29;20047;-69
2023/10/27 00:22:36;;;;;;;32.83;16.65;;;;;;;9.88;100.00;99080.91;4933749;29;20475;-70
2023/10/27 00:25:02;;;;;;;33.08;15.68;;;;;;;9.95;100.00;99086.66;4937529;29;20031;-70
2023/10/27 00:27:28;;;;;;;35.05;16.75;;;;;;;9.93;100.00;99084.25;4950953;28;20206;-69
2023/10/27 00:29:53;;;;;;;32.95;17.13;;;;;;;9.92;100.00;99085.41;4952339;29;20070;-67
2023/10/27 00:32:18;;;;;;;31.55;15.60;;;;;;;9.93;100.00;99083.44;4937055;28;20114;-68
2023/10/27 00:34:44;;;;;;;31.67;16.15;;;;;;;9.91;100.00;99078.25;4936938;29;20028;-67
2023/10/27 00:37:09;;;;;;;29.80;15.38;;;;;;;9.91;100.00;99074.72;4951952;28;20107;-67
2023/10/27 00:39:34;;;;;;;31.65;16.40;;;;;;;9.91;100.00;99072.75;4942218;29;20042;-68
2023/10/27 00:41:59;;;;;;;33.15;15.90;;;;;;;9.92;100.00;99063.31;4932994;29;20427;-67
2023/10/27 00:44:25;;;;;;;32.60;16.63;;;;;;;9.93;100.00;99072.38;4935491;29;20047;-68
2023/10/27 00:46:55;;;;;;;30.92;15.45;;;;;;;9.94;100.00;99071.22;4951785;28;20023;-67
2023/10/27 00:49:21;;;;;;;31.98;15.57;;;;;;;9.92;100.00;99068.81;4951412;28;20038;-67
2023/10/27 00:51:47;;;;;;;31.80;15.18;;;;;;;9.92;100.00;99068.81;4932947;28;20036;-67
2023/10/27 00:54:15;;;;;;;29.83;14.82;;;;;;;9.92;100.00;99066.06;4935988;29;20039;-67
2023/10/27 00:56:41;;;;;;;32.45;15.35;;;;;;;9.93;100.00;99058.56;4950132;29;20028;-67
2023/10/27 00:59:07;;;;;;;31.52;15.23;;;;;;;9.93;100.00;99064.91;4946340;28;20444;-68
2023/10/27 01:01:33;;;;;;;31.77;15.88;;;;;;;9.94;100.00;99068.47;4943241;29;20046;-68
2023/10/27 01:03:58;;;;;;;31.73;15.55;;;;;;;9.97;100.00;99074.09;4952518;28;20114;-68
2023/10/27 01:06:25;;;;;;;31.30;14.30;;;;;;;9.97;100.00;99063.06;4950418;28;20027;-69
2023/10/27 01:08:50;;;;;;;31.35;14.55;;;;;;;9.95;100.00;99062.63;4950448;29;20062;-69
2023/10/27 01:11:18;;;;;;;30.98;14.20;;;;;;;9.97;100.00;99065.81;4937055;28;20035;-68
2023/10/27 01:13:43;;;;;;;30.27;13.85;;;;;;;9.96;100.00;99049.59;4949404;29;20049;-68
2023/10/27 01:16:09;;;;;;;29.23;14.55;;;;;;;9.97;100.00;99057.53;4945967;28;20492;-68
2023/10/27 01:18:34;;;;;;;29.33;14.90;;;;;;;9.98;100.00;99061.13;4932381;29;20074;-68
2023/10/27 01:20:59;;;;;;;30.77;14.88;;;;;;;9.97;100.00;99054.78;4932573;29;20046;-69
2023/10/27 01:23:25;;;;;;;29.92;14.32;;;;;;;9.98;100.00;99056.38;4935523;29;20028;-69
2023/10/27 01:25:51;;;;;;;30.10;14.43;;;;;;;9.95;100.00;99054.34;4932485;29;20027;-68
2023/10/27 01:28:16;;;;;;;30.40;14.15;;;;;;;9.99;100.00;99060.75;4933649;29;20039;-68
2023/10/27 01:30:42;;;;;;;30.23;14.18;;;;;;;9.99;100.00;99051.69;4951864;29;20110;-68
2023/10/27 01:33:07;;;;;;;29.75;13.43;;;;;;;10.01;100.00;99056.84;4951398;29;20534;-68
2023/10/27 01:35:33;;;;;;;28.50;13.98;;;;;;;10.04;100.00;99056.16;4951135;28;20035;-69
2023/10/27 01:37:58;;;;;;;28.85;13.40;;;;;;;10.04;100.00;99058.94;4951375;28;20042;-68
2023/10/27 01:40:23;;;;;;;30.23;13.07;;;;;;;10.05;100.00;99057.78;4950977;28;20111;-69
2023/10/27 01:42:49;;;;;;;28.23;12.32;;;;;;;10.03;100.00;99049.81;4951143;29;20379;-68
2023/10/27 01:45:14;;;;;;;28.83;12.73;;;;;;;10.05;100.00;99050.28;4945795;29;20090;-68
2023/10/27 01:47:39;;;;;;;29.67;13.02;;;;;;;10.03;100.00;99049.81;4937518;29;20050;-69
2023/10/27 01:50:06;;;;;;;30.02;12.73;;;;;;;10.02;100.00;99048.22;4931788;29;20159;-68
2023/10/27 01:52:31;;;;;;;28.30;12.30;;;;;;;10.00;100.00;99039.47;4951628;28;20483;-69
2023/10/27 01:54:57;;;;;;;28.50;12.00;;;;;;;10.05;100.00;99046.72;4954814;29;20035;-68
2023/10/27 01:57:23;;;;;;;29.17;11.98;;;;;;;10.03;100.00;99047.06;4954820;28;20253;-68
2023/10/27 01:59:49;;;;;;;28.55;11.73;;;;;;;10.02;100.00;99037.16;4954663;28;20485;-68
2023/10/27 02:02:15;;;;;;;27.40;11.43;;;;;;;10.01;100.00;99035.56;4954717;28;20034;-68
2023/10/27 02:04:41;;;;;;;25.92;12.00;;;;;;;10.01;100.00;99035.56;4942277;29;20074;-69
2023/10/27 02:07:06;;;;;;;27.63;11.88;;;;;;;10.00;100.00;99036.72;4935441;29;20111;-67
2023/10/27 02:09:31;;;;;;;27.48;11.00;;;;;;;10.03;100.00;99033.25;4937738;29;20059;-67
2023/10/27 02:11:57;;;;;;;28.20;10.77;;;;;;;9.97;100.00;99032.66;4954520;29;20031;-68
2023/10/27 02:14:23;;;;;;;26.52;11.38;;;;;;;9.98;100.00;99026.00;4952095;28;20092;-67
2023/10/27 02:16:49;;;;;;;26.95;12.13;;;;;;;9.94;100.00;99018.75;4954321;28;20442;-67
2023/10/27 02:19:14;;;;;;;29.48;11.73;;;;;;;10.01;100.00;99032.81;4944079;29;20024;-67
2023/10/27 02:21:39;;;;;;;26.77;11.32;;;;;;;9.96;100.00;99021.97;4935293;29;20040;-67
2023/10/27 02:24:05;;;;;;;25.92;11.52;;;;;;;10.00;100.00;99022.91;4938150;28;20452;-68
2023/10/27 02:26:30;;;;;;;27.38;11.65;;;;;;;9.98;100.00;99023.22;4935549;29;20024;-68
2023/10/27 02:28:57;;;;;;;30.45;11.88;;;;;;;9.97;100.00;99016.09;4937600;29;20047;-68
2023/10/27 02:31:22;;;;;;;28.17;11.48;;;;;;;9.96;100.00;99019.22;4954052;28;20130;-68
2023/10/27 02:33:48;;;;;;;28.92;12.05;;;;;;;9.98;100.00;99023.22;4954448;29;20035;-69
2023/10/27 02:36:14;;;;;;;28.75;11.88;;;;;;;9.98;100.00;99019.69;4954020;28;20185;-70
2023/10/27 02:38:39;;;;;;;27.30;11.32;;;;;;;9.98;100.00;99011.41;4954096;28;20109;-69
2023/10/27 02:41:11;;;;;;;27.25;11.98;;;;;;;9.96;100.00;99006.22;4953885;28;20076;-69
2023/10/27 02:43:37;;;;;;;30.88;15.07;;;;;;;9.98;100.00;99016.91;4954092;28;20518;-69
2023/10/27 02:46:05;;;;;;;27.38;11.18;;;;;;;9.96;100.00;99010.94;4948566;28;20042;-70
2023/10/27 02:48:31;;;;;;;27.85;11.55;;;;;;;9.97;100.00;99010.56;4934751;29;20028;-68
2023/10/27 02:50:57;;;;;;;26.25;11.65;;;;;;;9.97;100.00;99004.25;4939884;29;20026;-69
2023/10/27 02:53:22;;;;;;;24.08;10.63;;;;;;;9.91;100.00;98997.38;4954508;28;20031;-69
2023/10/27 02:55:48;;;;;;;26.83;11.07;;;;;;;9.96;100.00;99010.94;4954595;28;20165;-68
2023/10/27 02:58:14;;;;;;;27.27;11.00;;;;;;;9.92;100.00;99004.50;4952997;29;20132;-68
2023/10/27 03:00:40;;;;;;;27.88;12.02;;;;;;;9.93;100.00;99003.31;4954348;29;20039;-69
2023/10/27 03:03:05;;;;;;;26.15;11.00;;;;;;;9.93;100.00;99004.16;4953948;28;20039;-67
2023/10/27 03:05:31;;;;;;;26.00;11.07;;;;;;;9.93;100.00;98998.63;4952451;29;20027;-69
2023/10/27 03:07:56;;;;;;;29.33;11.70;;;;;;;9.94;100.00;99002.19;4953438;28;20101;-69
2023/10/27 03:10:21;;;;;;;29.02;11.50;;;;;;;9.92;100.00;98988.72;4950309;29;20058;-69
2023/10/27 03:12:47;;;;;;;26.90;10.45;;;;;;;9.95;100.00;99001.03;4934537;29;20042;-70
2023/10/27 03:15:12;;;;;;;25.35;10.15;;;;;;;9.94;100.00;98997.47;4953602;29;20023;-70
2023/10/27 03:17:37;;;;;;;29.25;11.10;;;;;;;9.96;100.00;98991.59;4954236;28;20514;-68
2023/10/27 03:20:04;;;;;;;26.80;11.20;;;;;;;9.95;100.00;98998.25;4949319;28;20043;-68
2023/10/27 03:22:30;;;;;;;25.58;11.15;;;;;;;9.93;100.00;98995.03;4952472;29;20041;-68
2023/10/27 03:24:56;;;;;;;25.75;10.43;;;;;;;9.94;100.00;98999.41;4945150;28;20352;-67
2023/10/27 03:27:21;;;;;;;24.58;10.35;;;;;;;9.90;100.00;98993.78;4935528;29;20121;-68
2023/10/27 03:29:46;;;;;;;28.42;11.15;;;;;;;9.90;100.00;98991.03;4952638;29;20058;-67
2023/10/27 03:32:11;;;;;;;26.20;10.07;;;;;;;9.90;100.00;98995.75;4953191;28;20023;-68
2023/10/27 03:34:37;;;;;;;26.73;10.90;;;;;;;9.90;100.00;98991.03;4951968;29;20106;-69
2023/10/27 03:37:02;;;;;;;25.80;10.57;;;;;;;9.92;100.00;98996.22;4951220;29;20034;-68
2023/10/27 03:39:28;;;;;;;26.30;10.32;;;;;;;9.91;100.00;98989.88;4947226;28;20032;-69
2023/10/27 03:41:53;;;;;;;26.08;10.25;;;;;;;9.94;100.00;98985.59;4941917;29;20031;-68
2023/10/27 03:44:18;;;;;;;24.45;9.98;;;;;;;9.92;100.00;98985.16;4952588;29;20043;-68
2023/10/27 03:46:43;;;;;;;23.90;9.93;;;;;;;9.92;100.00;98985.16;4940415;29;20019;-68
2023/10/27 03:49:09;;;;;;;25.25;10.07;;;;;;;9.89;100.00;98975.59;4939645;29;20106;-67
2023/10/27 03:51:34;;;;;;;25.73;10.18;;;;;;;9.89;100.00;98975.59;4948491;29;20042;-68
2023/10/27 03:53:59;;;;;;;27.92;10.25;;;;;;;9.92;100.00;98974.91;4953251;28;20848;-68
2023/10/27 03:56:25;;;;;;;24.42;9.75;;;;;;;9.96;100.00;98981.38;4952847;29;20471;-68
2023/10/27 03:58:50;;;;;;;26.10;10.45;;;;;;;9.95;100.00;98984.47;4952326;29;20122;-69
2023/10/27 04:01:16;;;;;;;23.77;9.73;;;;;;;9.94;100.00;98980.91;4944511;29;20086;-69
2023/10/27 04:03:41;;;;;;;25.73;9.65;;;;;;;9.91;100.00;98978.81;4952443;28;20514;-69
2023/10/27 04:06:06;;;;;;;23.75;9.20;;;;;;;9.91;100.00;98983.56;4950779;29;20807;-69
2023/10/27 04:08:32;;;;;;;27.60;10.23;;;;;;;9.90;100.00;98982.75;4947850;29;20515;-70
2023/10/27 04:10:57;;;;;;;25.95;9.35;;;;;;;9.90;100.00;98971.69;4950410;29;20271;-70
2023/10/27 04:13:22;;;;;;;24.40;9.73;;;;;;;9.89;100.00;98967.31;4951434;29;20031;-69
2023/10/27 04:15:48;;;;;;;24.35;9.70;;;;;;;9.91;100.00;98975.28;4952022;28;20039;-70
2023/10/27 04:18:13;;;;;;;24.92;9.60;;;;;;;9.82;100.00;98961.56;4952608;28;20035;-70
2023/10/27 04:20:39;;;;;;;24.73;9.25;;;;;;;9.87;100.00;98980.66;4952491;28;20111;-70
2023/10/27 04:23:06;;;;;;;24.60;9.32;;;;;;;9.81;100.00;98969.06;4952339;28;20058;-69
2023/10/27 04:25:32;;;;;;;25.38;9.48;;;;;;;9.83;100.00;98977.78;4952001;28;20478;-69
2023/10/27 04:27:57;;;;;;;26.67;9.30;;;;;;;9.82;100.00;98975.38;4948841;29;20023;-69
2023/10/27 04:30:22;;;;;;;25.85;9.48;;;;;;;9.80;100.00;98972.16;4935790;29;20039;-68
2023/10/27 04:32:48;;;;;;;24.40;9.73;;;;;;;9.80;100.00;98977.69;4949543;29;20034;-69
2023/10/27 04:35:13;;;;;;;25.52;9.07;;;;;;;9.82;100.00;98975.38;4951894;28;20445;-69
2023/10/27 04:37:39;;;;;;;24.80;9.38;;;;;;;9.79;100.00;98981.59;4945768;29;20044;-68
2023/10/27 04:40:04;;;;;;;23.50;8.98;;;;;;;9.79;100.00;98979.66;4951288;29;20038;-69
2023/10/27 04:42:30;;;;;;;25.08;9.50;;;;;;;9.75;100.00;98981.47;4951411;29;20039;-69
2023/10/27 04:44:55;;;;;;;23.42;9.35;;;;;;;9.77;100.00;98987.47;4950410;28;20039;-70
2023/10/27 04:47:21;;;;;;;25.27;8.73;;;;;;;9.77;100.00;98981.94;4945779;29;20152;-70
2023/10/27 04:49:46;;;;;;;25.08;9.70;;;;;;;9.75;100.00;98986.22;4936679;29;20046;-70
2023/10/27 04:52:12;;;;;;;25.45;8.77;;;;;;;9.76;100.00;98988.63;4949757;29;20078;-69
2023/10/27 04:54:37;;;;;;;25.15;8.48;;;;;;;9.75;100.00;98981.47;4950970;28;20416;-70
2023/10/27 04:57:03;;;;;;;26.90;9.30;;;;;;;9.76;100.00;98980.34;4944254;29;20031;-70
2023/10/27 04:59:32;;;;;;;23.73;8.80;;;;;;;9.74;100.00;98979.06;4936674;29;20058;-69
2023/10/27 05:01:58;;;;;;;25.73;8.43;;;;;;;9.72;100.00;98984.13;4932077;29;20036;-69
2023/10/27 05:04:23;;;;;;;24.00;8.50;;;;;;;9.73;100.00;98981.00;4941042;29;20042;-70
2023/10/27 05:06:48;;;;;;;25.40;8.90;;;;;;;9.73;100.00;98978.25;4951478;29;20130;-71
2023/10/27 05:09:13;;;;;;;26.20;8.57;;;;;;;9.70;100.00;98970.69;4951409;29;20166;-71
2023/10/27 05:11:42;;;;;;;23.27;9.32;;;;;;;9.69;100.00;98977.34;4934399;29;20106;-67
2023/10/27 05:14:08;;;;;;;22.25;8.73;;;;;;;9.68;100.00;98972.97;4947504;29;20106;-70
2023/10/27 05:16:33;;;;;;;26.45;10.30;;;;;;;9.62;100.00;98974.38;4950978;28;20025;-69
2023/10/27 05:18:58;;;;;;;22.55;8.90;;;;;;;9.57;100.00;98961.59;4940926;29;20130;-69
2023/10/27 05:21:27;;;;;;;24.08;9.25;;;;;;;9.62;100.00;98977.13;4944135;28;20117;-69
2023/10/27 05:23:58;;;;;;;24.63;8.55;;;;;;;9.60;100.00;98969.19;4932220;29;20087;-70
2023/10/27 05:26:24;;;;;;;24.63;8.93;;;;;;;9.57;100.00;98967.13;4943171;28;20031;-70
2023/10/27 05:28:50;;;;;;;23.58;8.55;;;;;;;9.54;100.00;98970.56;4951485;28;20034;-70
2023/10/27 05:31:15;;;;;;;23.92;8.70;;;;;;;9.51;100.00;98960.22;4934735;29;20027;-69
2023/10/27 05:33:40;;;;;;;25.30;8.55;;;;;;;9.53;100.00;98968.97;4946169;29;20126;-69
2023/10/27 05:36:06;;;;;;;24.30;8.98;;;;;;;9.45;100.00;98954.09;4932191;29;20080;-70
2023/10/27 05:38:31;;;;;;;24.70;8.70;;;;;;;9.47;100.00;98968.38;4951043;29;20038;-69
2023/10/27 05:40:56;;;;;;;25.98;9.50;;;;;;;9.45;100.00;98967.13;4937154;29;20031;-68
2023/10/27 05:43:22;;;;;;;24.58;9.07;;;;;;;9.42;100.00;98960.34;4943700;29;20153;-69
2023/10/27 05:45:47;;;;;;;25.13;9.00;;;;;;;9.42;100.00;98960.34;4950626;29;20032;-69
2023/10/27 05:48:12;;;;;;;24.33;9.52;;;;;;;9.41;100.00;98966.19;4950209;28;20451;-69
2023/10/27 05:50:38;;;;;;;23.63;8.90;;;;;;;9.39;100.00;98961.03;4950421;29;20067;-69
2023/10/27 05:53:03;;;;;;;25.88;9.30;;;;;;;9.39;100.00;98955.50;4950384;28;20051;-70
2023/10/27 05:55:29;;;;;;;24.52;8.88;;;;;;;9.37;100.00;98952.28;4938182;29;20031;-69
2023/10/27 05:57:54;;;;;;;22.90;8.70;;;;;;;9.34;100.00;98953.78;4931298;29;20448;-69
2023/10/27 06:00:21;;;;;;;25.10;9.65;;;;;;;9.38;100.00;98956.66;4948449;29;20030;-69
2023/10/27 06:02:48;;;;;;;25.42;9.25;;;;;;;9.38;100.00;98958.63;4950487;28;20059;-67
2023/10/27 06:05:15;;;;;;;24.60;10.13;;;;;;;9.38;100.00;98961.38;4941659;28;20057;-69
2023/10/27 06:07:40;;;;;;;24.35;9.57;;;;;;;9.40;100.00;98967.38;4934703;29;20502;-68
2023/10/27 06:10:06;;;;;;;23.40;9.05;;;;;;;9.40;100.00;98965.41;4930739;29;20126;-68
2023/10/27 06:12:31;;;;;;;25.30;9.00;;;;;;;9.42;100.00;98959.53;4942549;29;20035;-69
2023/10/27 06:14:57;;;;;;;24.30;8.55;;;;;;;9.40;100.00;98956.31;4931043;29;20056;-68
2023/10/27 06:17:22;;;;;;;23.63;9.68;;;;;;;9.42;100.00;98963.09;4935009;29;20452;-66
2023/10/27 06:19:47;;;;;;;24.00;9.18;;;;;;;9.42;100.00;98965.88;4946074;29;20039;-67
2023/10/27 06:22:14;;;;;;;22.38;8.52;;;;;;;9.40;100.00;98965.41;4935159;29;20032;-67
2023/10/27 06:24:39;;;;;;;24.42;8.68;;;;;;;9.43;100.00;98967.47;4933859;29;20109;-67
2023/10/27 06:27:05;;;;;;;24.38;9.25;;;;;;;9.44;100.00;98963.56;4940858;29;20024;-66
2023/10/27 06:29:31;;;;;;;23.25;8.75;;;;;;;9.48;100.00;98969.19;4930907;29;20102;-67
2023/10/27 06:31:56;;;;;;;25.30;9.90;;;;;;;9.44;100.00;98962.75;4941505;29;20377;-67
2023/10/27 06:34:21;;;;;;;23.17;9.48;;;;;;;9.48;100.00;98967.22;4939024;29;20043;-68
2023/10/27 06:36:47;;;;;;;22.58;8.70;;;;;;;9.47;100.00;98971.13;4948582;29;20070;-67
2023/10/27 06:39:13;;;;;;;25.98;11.18;;;;;;;9.44;100.00;98969.09;4952417;28;20106;-68
2023/10/27 06:41:39;;;;;;;23.98;10.07;;;;;;;9.39;100.00;98969.31;4953029;28;20842;-67
2023/10/27 06:44:04;;;;;;;24.52;9.60;;;;;;;9.41;100.00;98966.19;4952379;28;20042;-68
2023/10/27 06:46:30;;;;;;;24.85;9.68;;;;;;;9.40;100.00;98965.41;4952342;28;20451;-67
2023/10/27 06:48:56;;;;;;;23.77;9.00;;;;;;;9.38;100.00;98964.13;4950908;29;20591;-67
2023/10/27 06:51:21;;;;;;;23.45;9.48;;;;;;;9.36;100.00;98967.22;4952445;29;20035;-67
2023/10/27 06:53:47;;;;;;;22.77;9.45;;;;;;;9.38;100.00;98969.66;4951546;29;20035;-67
2023/10/27 06:56:12;;;;;;;28.20;10.10;;;;;;;9.29;100.00;98958.72;4948775;28;20027;-68
2023/10/27 06:58:38;;;;;;;22.25;8.82;;;;;;;9.34;100.00;98966.78;4934310;29;20039;-67
2023/10/27 07:01:10;;;;;;;24.67;9.52;;;;;;;9.36;100.00;98967.22;4936060;29;20057;-68
2023/10/27 07:03:37;;;;;;;24.17;9.02;;;;;;;9.32;100.00;98971.84;4944859;28;20039;-67
2023/10/27 07:06:05;;;;;;;26.67;10.23;;;;;;;9.34;100.00;98984.13;4940582;28;20032;-68
2023/10/27 07:08:31;;;;;;;23.17;9.27;;;;;;;9.35;100.00;98982.19;4933721;29;20059;-64
2023/10/27 07:10:59;;;;;;;23.50;9.23;;;;;;;9.33;100.00;98979.75;4948817;29;20118;-65
2023/10/27 07:13:25;;;;;;;23.00;9.32;;;;;;;9.38;100.00;98988.97;4936070;29;20034;-65
2023/10/27 07:15:51;;;;;;;23.45;9.63;;;;;;;9.40;100.00;98995.75;4943002;28;20478;-66
2023/10/27 07:18:16;;;;;;;24.83;9.68;;;;;;;9.41;100.00;99000.13;4950221;29;20042;-66
2023/10/27 07:20:42;;;;;;;24.17;9.40;;;;;;;9.44;100.00;99002.22;4937976;29;20058;-67
2023/10/27 07:23:08;;;;;;;22.85;8.82;;;;;;;9.47;100.00;99003.47;4937473;29;20118;-65
2023/10/27 07:25:34;;;;;;;23.25;9.65;;;;;;;9.44;100.00;99004.97;4953191;28;20131;-65
2023/10/27 07:27:59;;;;;;;24.30;9.55;;;;;;;9.46;100.00;99008.16;4950834;28;20140;-66
2023/10/27 07:30:25;;;;;;;24.83;9.25;;;;;;;9.50;100.00;99011.88;4952894;29;20031;-65
2023/10/27 07:32:50;;;;;;;24.02;9.45;;;;;;;9.53;100.00;99010.38;4952810;29;20115;-65
2023/10/27 07:35:16;;;;;;;24.30;9.32;;;;;;;9.55;100.00;99012.78;4949636;29;20035;-66
2023/10/27 07:37:41;;;;;;;23.35;9.55;;;;;;;9.56;100.00;99017.16;4944082;29;20546;-66
2023/10/27 07:40:07;;;;;;;21.90;8.80;;;;;;;9.55;100.00;99015.53;4944740;28;20043;-66
2023/10/27 07:42:33;;;;;;;24.17;9.25;;;;;;;9.53;100.00;99018.66;4933697;29;20032;-66
2023/10/27 07:44:58;;;;;;;22.63;9.68;;;;;;;9.55;100.00;99008.06;4940462;29;20046;-66
2023/10/27 07:47:24;;;;;;;22.73;9.35;;;;;;;9.52;100.00;99020.63;4951149;29;20090;-67
2023/10/27 07:49:50;;;;;;;24.13;9.02;;;;;;;9.49;100.00;99010.25;4942352;28;20034;-66
2023/10/27 07:52:15;;;;;;;23.50;9.65;;;;;;;9.49;100.00;99012.22;4931211;29;20099;-66
2023/10/27 07:54:40;;;;;;;22.10;8.93;;;;;;;9.49;100.00;99020.50;4939246;29;20026;-66
2023/10/27 07:57:06;;;;;;;21.30;8.38;;;;;;;9.50;100.00;99019.31;4942687;29;20066;-67
2023/10/27 07:59:32;;;;;;;22.30;8.48;;;;;;;9.56;100.00;99019.91;4950812;29;20403;-68
2023/10/27 08:02:00;;;;;;;22.45;8.45;;;;;;;9.62;100.00;99027.63;4951719;29;20039;-68
2023/10/27 08:04:25;;;;;;;21.50;8.15;;;;;;;9.61;100.00;99030.75;4952096;29;20035;-65
2023/10/27 08:06:52;;;;;;;21.13;8.55;;;;;;;9.66;100.00;99027.72;4952014;29;20054;-65
2023/10/27 08:09:19;;;;;;;25.23;10.05;;;;;;;9.62;100.00;99026.84;4952016;28;20102;-66
2023/10/27 08:11:48;;;;;;;21.50;7.82;;;;;;;9.67;100.00;99029.34;4941314;28;20028;-67
2023/10/27 08:14:13;;;;;;;22.52;7.93;;;;;;;9.75;100.00;99024.88;4932893;29;20032;-66
2023/10/27 08:16:39;;;;;;;20.63;7.28;;;;;;;9.78;100.00;99024.16;4932578;29;20031;-66
2023/10/27 08:19:04;;;;;;;20.85;7.47;;;;;;;9.81;100.00;99037.28;4932588;29;20084;-64
2023/10/27 08:21:29;;;;;;;20.85;7.22;;;;;;;9.79;100.00;99032.13;4932455;29;20039;-65
2023/10/27 08:23:55;;;;;;;20.55;7.28;;;;;;;9.76;100.00;99038.31;4932422;29;20111;-66
2023/10/27 08:26:20;;;;;;;19.77;7.07;;;;;;;9.75;100.00;99031.19;4932594;29;20453;-66
2023/10/27 08:28:45;;;;;;;19.77;6.57;;;;;;;9.78;100.00;99027.75;4932532;29;20083;-66
2023/10/27 08:31:13;;;;;;;18.67;6.75;;;;;;;9.80;100.00;99030.16;4932752;29;20031;-66
2023/10/27 08:33:39;;;;;;;20.00;7.03;;;;;;;9.81;100.00;99031.75;4942550;29;20047;-66
2023/10/27 08:36:05;;;;;;;19.75;7.15;;;;;;;9.82;100.00;99023.13;4951867;28;20031;-66
2023/10/27 08:38:32;;;;;;;20.38;6.82;;;;;;;9.83;100.00;99024.75;4951670;29;20058;-66
2023/10/27 08:40:58;;;;;;;20.33;7.53;;;;;;;9.86;100.00;99025.22;4951561;28;20055;-65
2023/10/27 08:43:24;;;;;;;20.95;7.13;;;;;;;9.88;100.00;99042.25;4951494;28;20042;-66
2023/10/27 08:45:51;;;;;;;18.77;6.68;;;;;;;9.86;100.00;99042.59;4951547;28;20039;-66
2023/10/27 08:48:17;;;;;;;19.75;6.63;;;;;;;9.92;100.00;99052.25;4951625;28;20094;-66
2023/10/27 08:50:42;;;;;;;20.75;6.72;;;;;;;9.95;100.00;99048.00;4951572;28;20027;-65
2023/10/27 08:53:14;;;;;;;20.88;6.97;;;;;;;10.01;100.00;99054.09;4950589;29;20087;-65
2023/10/27 08:55:40;;;;;;;18.75;6.63;;;;;;;10.04;100.00;99056.16;4950139;29;20121;-66
2023/10/27 08:58:05;;;;;;;18.23;6.47;;;;;;;10.08;100.00;99059.84;4951391;28;20055;-66
2023/10/27 09:00:30;;;;;;;18.55;6.53;;;;;;;10.10;100.00;99063.06;4951324;29;20122;-64
2023/10/27 09:02:56;;;;;;;19.10;6.38;;;;;;;10.12;100.00;99061.56;4951103;28;20027;-66
2023/10/27 09:05:24;;;;;;;19.08;6.00;;;;;;;10.14;100.00;99053.72;4943233;28;20122;-65
2023/10/27 09:07:50;;;;;;;20.00;6.57;;;;;;;10.13;100.00;99054.09;4940680;29;20191;-65
2023/10/27 09:10:18;;;;;;;17.67;6.30;;;;;;;10.13;100.00;99059.63;4942071;28;20475;-65
2023/10/27 09:12:44;;;;;;;19.73;6.35;;;;;;;10.15;100.00;99060.88;4933048;29;20027;-64
2023/10/27 09:15:12;;;;;;;18.45;6.28;;;;;;;10.18;100.00;99061.34;4945704;28;20063;-64
2023/10/27 09:17:56;;;;;;;18.25;5.90;;;;;;;10.27;100.00;99070.31;4939022;28;20116;-66
2023/10/27 09:20:23;;;;;;;18.47;5.87;;;;;;;10.33;100.00;99077.19;4936782;28;20074;-65
2023/10/27 09:22:59;;;;;;;17.65;5.40;;;;;;;10.37;100.00;99072.63;4939194;29;20599;-65
2023/10/27 09:25:30;;;;;;;14.68;4.70;;;;;;;10.39;100.00;99073.06;4948019;28;20034;-65
2023/10/27 09:27:58;;;;;;;16.45;4.95;;;;;;;10.44;100.00;99075.59;4946198;29;20043;-65
2023/10/27 09:30:26;;;;;;;15.88;4.90;;;;;;;10.48;100.00;99078.47;4951337;28;20042;-65
2023/10/27 09:32:52;;;;;;;16.92;5.15;;;;;;;10.52;100.00;99073.88;4951486;28;20142;-64
2023/10/27 09:35:18;;;;;;;16.77;5.10;;;;;;;10.53;100.00;99074.66;4947925;28;20543;-66
2023/10/27 09:37:46;;;;;;;14.27;4.45;;;;;;;10.60;100.00;99077.63;4938807;29;20047;-65
2023/10/27 09:40:13;;;;;;;17.10;4.78;;;;;;;10.60;100.00;99078.44;4946854;29;20035;-66
2023/10/27 09:42:39;;;;;;;16.13;4.25;;;;;;;10.62;100.00;99075.31;4950347;29;20163;-66
2023/10/27 09:45:13;;;;;;;16.13;4.50;;;;;;;10.68;100.00;99081.41;4940027;29;20039;-66
2023/10/27 09:47:41;;;;;;;14.98;4.57;;;;;;;10.69;100.00;99089.34;4931439;29;20090;-64
2023/10/27 09:50:11;;;;;;;17.48;4.70;;;;;;;10.73;100.00;99090.28;4947588;29;20331;-64
2023/10/27 09:52:39;;;;;;;16.30;4.40;;;;;;;10.74;100.00;99085.53;4949971;28;20047;-65
2023/10/27 09:55:05;;;;;;;12.93;3.80;;;;;;;10.74;100.00;99072.53;4950692;28;20055;-65
2023/10/27 09:57:32;;;;;;;12.98;3.97;;;;;;;10.76;100.00;99073.00;4950742;28;20518;-66
2023/10/27 09:59:59;;;;;;;16.08;4.30;;;;;;;10.75;100.00;99067.78;4950318;28;20046;-66
2023/10/27 10:02:26;;;;;;;14.55;4.35;;;;;;;10.79;100.00;99079.78;4950546;28;20110;-66
2023/10/27 10:04:51;;;;;;;14.93;4.22;;;;;;;10.85;100.00;99080.34;4950692;29;20037;-66
2023/10/27 10:07:33;;;;;;;14.48;4.15;;;;;;;10.89;100.00;99067.41;4950535;29;20851;-66
2023/10/27 10:10:15;;;;;;;18.58;4.10;;;;;;;10.85;100.00;99059.00;4931762;29;20047;-65
2023/10/27 10:13:05;;;;;;;16.05;4.68;;;;;;;10.90;100.00;99061.53;4931951;29;20043;-66
2023/10/27 10:15:33;;;;;;;15.63;4.45;;;;;;;10.96;100.00;99064.81;4939948;29;20114;-66
2023/10/27 10:18:00;;;;;;;15.43;4.50;;;;;;;11.00;100.00;99068.50;4953987;28;20185;-66
2023/10/27 10:20:49;;;;;;;16.27;4.80;;;;;;;11.08;100.00;99064.78;4953680;28;20110;-66
2023/10/27 10:23:16;;;;;;;15.77;4.40;;;;;;;11.14;100.00;99072.84;4953471;28;20039;-66
2023/10/27 10:25:55;;;;;;;16.25;4.82;;;;;;;11.19;100.00;99073.34;4953638;28;20039;-65
2023/10/27 10:28:25;;;;;;;20.05;5.70;;;;;;;11.23;100.00;99076.25;4953643;28;20047;-66
2023/10/27 10:31:16;;;;;;;17.30;4.90;;;;;;;11.27;100.00;99084.66;4953576;28;20041;-66
2023/10/27 10:33:44;;;;;;;19.80;7.55;;;;;;;11.20;100.00;99083.28;4955791;28;20027;-67
2023/10/27 10:36:22;;;;;;;19.58;6.35;;;;;;;11.20;100.00;99090.78;4956059;28;20554;-65
2023/10/27 10:38:50;;;;;;;16.52;4.88;;;;;;;11.14;100.00;99098.53;4953691;28;20031;-65
2023/10/27 10:41:17;;;;;;;16.65;4.68;;;;;;;11.06;100.00;99092.00;4953503;29;20045;-66
2023/10/27 10:43:42;;;;;;;16.10;4.85;;;;;;;11.10;100.00;99107.91;4950443;28;20027;-66
2023/10/27 10:46:12;;;;;;;16.63;4.80;;;;;;;11.06;100.00;99105.03;4946764;29;20032;-66
2023/10/27 10:48:47;;;;;;;17.33;4.82;;;;;;;11.06;100.00;99096.72;4942924;29;20027;-65
2023/10/27 10:51:15;;;;;;;15.65;4.80;;;;;;;10.95;100.00;99085.38;4953289;29;20039;-65
2023/10/27 10:53:52;;;;;;;17.17;5.50;;;;;;;10.98;100.00;99101.25;4944755;28;20036;-65
2023/10/27 10:56:18;;;;;;;16.98;5.65;;;;;;;10.98;100.00;99109.56;4940829;29;20036;-65
2023/10/27 10:58:44;;;;;;;17.55;5.80;;;;;;;10.95;100.00;99099.22;4937090;29;20035;-66
2023/10/27 11:01:20;;;;;;;18.08;5.90;;;;;;;10.98;100.00;99095.72;4950823;29;20119;-66
2023/10/27 11:03:55;;;;;;;17.60;5.63;;;;;;;10.98;100.00;99100.47;4951823;29;20027;-66
2023/10/27 11:06:23;;;;;;;16.38;4.95;;;;;;;10.92;100.00;99106.22;4946994;29;20039;-66
2023/10/27 11:08:49;;;;;;;22.23;8.80;;;;;;;10.91;100.00;99101.84;4947351;28;20051;-66
2023/10/27 11:11:16;;;;;;;20.65;7.93;;;;;;;10.88;100.00;99098.97;4944855;29;20054;-66
2023/10/27 11:13:56;;;;;;;19.52;5.70;;;;;;;10.80;100.00;99097.16;4935288;29;20031;-66
2023/10/27 11:16:24;;;;;;;19.92;6.38;;;;;;;10.75;100.00;99089.91;4947444;29;20115;-66